createdAt,value
2023-03-24T00:01:36.181Z,11.20
2023-03-24T00:04:03.673Z,11.30
2023-03-24T00:06:34.696Z,11.30
2023-03-24T00:09:03.897Z,11.20
2023-03-24T00:11:34.333Z,11.30
2023-03-24T00:14:02.657Z,11.20
2023-03-24T00:16:29.739Z,11.20
2023-03-24T00:18:56.855Z,11.30
2023-03-24T00:21:25.006Z,11.30
2023-03-24T00:23:54.336Z,11.30
2023-03-24T00:26:21.825Z,11.30
2023-03-24T00:28:49.631Z,11.30
2023-03-24T00:31:17.431Z,11.30
2023-03-24T00:33:48.106Z,11.30
2023-03-24T00:36:15.030Z,11.30
2023-03-24T00:38:41.945Z,11.30
2023-03-24T00:41:10.664Z,11.20
2023-03-24T00:43:37.703Z,11.30
2023-03-24T00:46:08.750Z,11.30
2023-03-24T00:48:38.054Z,11.20
2023-03-24T00:51:11.326Z,11.30
2023-03-24T00:53:43.896Z,11.30
2023-03-24T00:56:11.716Z,11.30
2023-03-24T00:58:38.570Z,11.30
2023-03-24T01:01:06.765Z,11.30
2023-03-24T01:03:34.283Z,11.30
2023-03-24T01:06:03.216Z,11.30
2023-03-24T01:08:31.743Z,11.20
2023-03-24T01:11:01.594Z,11.30
2023-03-24T01:13:29.613Z,11.20
2023-03-24T01:15:57.753Z,11.30
2023-03-24T01:18:24.665Z,11.20
2023-03-24T01:20:51.895Z,11.20
2023-03-24T01:23:21.395Z,11.20
2023-03-24T01:25:49.192Z,11.20
2023-03-24T01:28:18.033Z,11.20
2023-03-24T01:30:45.049Z,11.10
2023-03-24T01:33:12.730Z,11.20
2023-03-24T01:35:39.672Z,11.20
2023-03-24T01:38:10.527Z,11.20
2023-03-24T01:40:39.084Z,11.10
2023-03-24T01:43:07.348Z,11.10
2023-03-24T01:45:40.702Z,11.10
2023-03-24T01:48:13.818Z,11.10
2023-03-24T01:50:42.651Z,11.10
2023-03-24T01:53:09.757Z,11.10
2023-03-24T01:55:37.600Z,11.10
2023-03-24T01:58:05.275Z,11.10
2023-03-24T02:00:46.292Z,11.10
2023-03-24T02:03:38.781Z,11.10
2023-03-24T02:06:08.473Z,11.10
2023-03-24T02:08:49.991Z,11.10
2023-03-24T02:11:17.230Z,11.10
2023-03-24T02:13:51.430Z,11.10
2023-03-24T02:16:37.310Z,11.10
2023-03-24T02:19:05.160Z,11.10
2023-03-24T02:21:32.068Z,11.10
2023-03-24T02:24:25.304Z,11.00
2023-03-24T02:26:52.278Z,11.00
2023-03-24T02:29:38.096Z,11.10
2023-03-24T02:32:23.407Z,11.10
2023-03-24T02:35:10.614Z,11.10
2023-03-24T02:37:49.722Z,11.00
2023-03-24T02:40:31.200Z,11.10
2023-03-24T02:43:05.633Z,11.10
2023-03-24T02:45:37.375Z,11.00
2023-03-24T02:48:23.452Z,11.00
2023-03-24T02:50:53.934Z,11.00
2023-03-24T02:53:40.985Z,11.00
2023-03-24T02:56:44.707Z,11.00
2023-03-24T02:59:23.292Z,11.00
2023-03-24T03:02:03.120Z,11.00
2023-03-24T03:04:46.249Z,11.10
2023-03-24T03:07:16.926Z,11.10
2023-03-24T03:09:47.768Z,11.10
2023-03-24T03:12:15.435Z,11.00
2023-03-24T03:14:46.493Z,11.00
2023-03-24T03:17:21.092Z,11.00
2023-03-24T03:19:55.461Z,11.10
2023-03-24T03:22:25.753Z,11.10
2023-03-24T03:24:54.609Z,11.10
2023-03-24T03:27:29.512Z,11.00
2023-03-24T03:30:00.346Z,11.10
2023-03-24T03:32:30.293Z,11.00
2023-03-24T03:35:02.110Z,11.00
2023-03-24T03:37:33.101Z,11.10
2023-03-24T03:40:09.846Z,11.10
2023-03-24T03:42:39.753Z,11.10
2023-03-24T03:45:10.604Z,11.10
2023-03-24T03:47:38.113Z,11.10
2023-03-24T03:50:07.839Z,11.10
2023-03-24T03:52:38.860Z,11.10
2023-03-24T03:55:06.218Z,11.00
2023-03-24T03:57:34.562Z,11.10
2023-03-24T04:00:19.850Z,11.10
2023-03-24T04:03:06.210Z,11.10
2023-03-24T04:05:36.563Z,11.10
2023-03-24T04:08:07.122Z,11.10
2023-03-24T04:11:03.575Z,11.10
2023-03-24T04:13:37.750Z,11.10
2023-03-24T04:16:25.136Z,11.20
2023-03-24T04:19:28.138Z,11.20
2023-03-24T04:21:55.649Z,11.20
2023-03-24T04:24:27.241Z,11.30
2023-03-24T04:27:01.763Z,11.30
2023-03-24T04:29:42.746Z,11.30
2023-03-24T04:32:15.060Z,11.30
2023-03-24T04:34:45.112Z,11.30
2023-03-24T04:37:32.725Z,11.30
2023-03-24T04:40:06.301Z,11.30
2023-03-24T04:42:53.734Z,11.30
2023-03-24T04:45:26.032Z,11.30
2023-03-24T04:48:12.546Z,11.30
2023-03-24T04:51:09.211Z,11.40
2023-03-24T04:53:50.815Z,11.40
2023-03-24T04:56:31.659Z,11.30
2023-03-24T04:59:05.501Z,11.40
2023-03-24T05:01:32.776Z,11.40
2023-03-24T05:04:28.142Z,11.40
2023-03-24T05:06:57.095Z,11.40
2023-03-24T05:09:26.487Z,11.40
2023-03-24T05:11:56.809Z,11.40
2023-03-24T05:14:24.072Z,11.40
2023-03-24T05:16:51.960Z,11.40
2023-03-24T05:19:20.827Z,11.50
2023-03-24T05:21:48.877Z,11.50
2023-03-24T05:24:15.628Z,11.50
2023-03-24T05:26:42.588Z,11.50
2023-03-24T05:29:15.437Z,11.50
2023-03-24T05:31:42.241Z,11.50
2023-03-24T05:34:11.205Z,11.50
2023-03-24T05:37:00.964Z,11.50
2023-03-24T05:39:28.173Z,11.50
2023-03-24T05:42:03.829Z,11.50
2023-03-24T05:44:31.167Z,11.50
2023-03-24T05:47:13.227Z,11.50
2023-03-24T05:49:40.419Z,11.50
2023-03-24T05:52:09.187Z,11.50
2023-03-24T05:54:39.465Z,11.60
2023-03-24T05:57:16.438Z,11.60
2023-03-24T06:00:18.404Z,11.60
2023-03-24T06:02:54.710Z,11.70
2023-03-24T06:05:37.309Z,11.70
2023-03-24T06:08:04.466Z,11.70
2023-03-24T06:10:36.808Z,11.70
2023-03-24T06:13:04.777Z,11.70
2023-03-24T06:15:33.564Z,11.70
2023-03-24T06:18:15.523Z,11.70
2023-03-24T06:20:43.804Z,11.70
2023-03-24T06:23:16.995Z,11.70
2023-03-24T06:25:54.472Z,11.70
2023-03-24T06:28:26.037Z,11.80
2023-03-24T06:30:56.619Z,11.80
2023-03-24T06:33:30.883Z,11.80
2023-03-24T06:36:01.743Z,11.80
2023-03-24T06:38:30.401Z,11.80
2023-03-24T06:41:01.293Z,11.80
2023-03-24T06:43:28.578Z,11.70
2023-03-24T06:45:55.965Z,11.80
2023-03-24T06:48:24.416Z,11.80
2023-03-24T06:50:58.108Z,11.80
2023-03-24T06:53:24.943Z,11.80
2023-03-24T06:55:51.741Z,11.80
2023-03-24T06:58:20.734Z,11.80
2023-03-24T07:00:57.431Z,11.80
2023-03-24T07:03:36.702Z,11.80
2023-03-24T07:06:23.569Z,11.80
2023-03-24T07:08:54.122Z,11.80
2023-03-24T07:11:24.435Z,11.80
2023-03-24T07:13:57.782Z,11.80
2023-03-24T07:16:24.669Z,11.80
2023-03-24T07:19:02.995Z,11.80
2023-03-24T07:21:33.821Z,11.80
2023-03-24T07:24:02.222Z,11.80
2023-03-24T07:26:43.953Z,11.80
2023-03-24T07:29:21.083Z,11.80
2023-03-24T07:32:04.057Z,11.70
2023-03-24T07:34:31.840Z,11.70
2023-03-24T07:37:00.126Z,11.70
2023-03-24T07:39:28.498Z,11.70
2023-03-24T07:41:55.589Z,11.70
2023-03-24T07:44:39.234Z,11.80
2023-03-24T07:47:06.309Z,11.70
2023-03-24T07:49:33.435Z,11.60
2023-03-24T07:52:06.490Z,11.60
2023-03-24T07:54:37.206Z,11.60
2023-03-24T07:57:04.505Z,11.60
2023-03-24T07:59:31.735Z,11.60
2023-03-24T08:02:05.607Z,11.50
2023-03-24T08:04:46.869Z,11.50
2023-03-24T08:07:37.062Z,11.40
2023-03-24T08:10:03.969Z,11.50
2023-03-24T08:12:30.759Z,11.40
2023-03-24T08:14:58.017Z,11.40
2023-03-24T08:17:25.243Z,11.40
2023-03-24T08:20:00.180Z,11.40
2023-03-24T08:22:28.448Z,11.30
2023-03-24T08:24:55.358Z,11.40
2023-03-24T08:27:22.170Z,11.40
2023-03-24T08:29:48.946Z,11.40
2023-03-24T08:32:15.713Z,11.50
2023-03-24T08:34:42.541Z,11.60
2023-03-24T08:37:09.448Z,11.60
2023-03-24T08:39:36.193Z,11.70
2023-03-24T08:42:03.436Z,11.70
2023-03-24T08:44:32.459Z,11.70
2023-03-24T08:47:03.536Z,11.70
2023-03-24T08:49:30.769Z,11.80
2023-03-24T08:51:57.849Z,11.70
2023-03-24T08:54:26.145Z,11.80
2023-03-24T08:56:52.891Z,11.80
2023-03-24T08:59:19.617Z,11.80
2023-03-24T09:01:46.681Z,11.80
2023-03-24T09:04:13.520Z,11.80
2023-03-24T09:06:40.360Z,11.70
2023-03-24T09:09:07.644Z,11.70
2023-03-24T09:11:38.663Z,11.80
2023-03-24T09:14:07.173Z,11.80
2023-03-24T09:16:34.567Z,11.80
2023-03-24T09:19:01.740Z,11.80
2023-03-24T09:21:28.649Z,11.80
2023-03-24T09:23:55.760Z,11.80
2023-03-24T09:26:23.056Z,11.70
2023-03-24T09:28:49.901Z,11.70
2023-03-24T09:31:27.637Z,11.80
2023-03-24T09:33:57.125Z,11.80
2023-03-24T09:36:23.922Z,11.80
2023-03-24T09:38:50.806Z,11.80
2023-03-24T09:41:19.584Z,11.90
2023-03-24T09:43:49.514Z,11.90
2023-03-24T09:46:30.550Z,11.90
2023-03-24T09:48:57.862Z,11.90
2023-03-24T09:51:27.237Z,11.80
2023-03-24T09:54:12.999Z,11.80
2023-03-24T09:56:41.493Z,11.80
2023-03-24T09:59:08.372Z,11.80
2023-03-24T10:01:38.647Z,11.80
2023-03-24T10:04:13.421Z,11.90
2023-03-24T10:06:42.120Z,11.90
2023-03-24T10:09:09.017Z,11.90
2023-03-24T10:12:02.288Z,11.90
2023-03-24T10:14:32.265Z,11.90
2023-03-24T10:16:59.045Z,11.90
2023-03-24T10:19:43.772Z,12.00
2023-03-24T10:22:10.588Z,12.00
2023-03-24T10:24:56.585Z,12.00
2023-03-24T10:27:42.351Z,12.00
2023-03-24T10:30:15.668Z,12.10
2023-03-24T10:32:43.242Z,12.20
2023-03-24T10:35:16.716Z,12.10
2023-03-24T10:37:44.421Z,12.10
2023-03-24T10:40:16.871Z,12.20
2023-03-24T10:43:07.250Z,12.20
2023-03-24T10:45:49.588Z,12.20
2023-03-24T10:48:38.310Z,12.20
2023-03-24T10:51:06.345Z,12.20
2023-03-24T10:53:34.181Z,12.20
2023-03-24T10:56:01.410Z,12.20
2023-03-24T10:58:40.253Z,12.20
2023-03-24T11:01:25.360Z,12.30
2023-03-24T11:04:05.004Z,12.40
2023-03-24T11:06:34.968Z,12.40
2023-03-24T11:09:19.222Z,12.50
2023-03-24T11:11:46.463Z,12.50
2023-03-24T11:14:25.608Z,12.60
2023-03-24T11:16:54.432Z,12.70
2023-03-24T11:19:32.637Z,12.70
2023-03-24T11:22:02.802Z,12.80
2023-03-24T11:24:37.804Z,12.80
2023-03-24T11:27:05.099Z,12.90
2023-03-24T11:29:41.016Z,13.00
2023-03-24T11:32:30.019Z,13.10
2023-03-24T11:35:01.099Z,13.10
2023-03-24T11:37:39.459Z,13.10
2023-03-24T11:40:12.508Z,13.10
2023-03-24T11:42:45.366Z,13.20
2023-03-24T11:45:44.434Z,13.10
2023-03-24T11:48:30.335Z,13.10
2023-03-24T11:50:58.980Z,13.20
2023-03-24T11:53:35.260Z,13.20
2023-03-24T11:56:05.568Z,13.20
2023-03-24T11:58:57.201Z,13.10
2023-03-24T12:05:35.348Z,13.20
2023-03-24T12:08:23.716Z,13.20
2023-03-24T12:11:27.630Z,13.20
2023-03-24T12:13:57.901Z,13.20
2023-03-24T12:16:58.801Z,13.30
2023-03-24T12:19:44.553Z,13.30
2023-03-24T12:22:26.985Z,13.30
2023-03-24T12:25:04.882Z,13.40
2023-03-24T12:27:35.479Z,13.40
2023-03-24T12:30:26.110Z,13.40
2023-03-24T12:37:37.656Z,13.50
2023-03-24T12:40:13.563Z,13.50
2023-03-24T12:42:42.492Z,13.40
2023-03-24T12:45:30.417Z,13.40
2023-03-24T12:48:16.598Z,13.30
2023-03-24T12:50:53.063Z,13.40
2023-03-24T12:53:28.986Z,13.50
2023-03-24T12:56:10.248Z,13.60
2023-03-24T12:58:41.626Z,13.60
2023-03-24T13:01:44.215Z,13.60
2023-03-24T13:04:11.579Z,13.60
2023-03-24T13:06:53.262Z,13.60
2023-03-24T13:09:47.774Z,13.60
2023-03-24T13:12:29.162Z,13.60
2023-03-24T13:15:19.532Z,13.70
2023-03-24T13:18:07.690Z,13.80
2023-03-24T13:20:48.638Z,13.80
2023-03-24T13:23:59.031Z,13.80
2023-03-24T13:27:25.201Z,13.80
2023-03-24T13:45:09.752Z,13.80
2023-03-24T13:52:25.465Z,13.70
2023-03-24T14:02:24.425Z,13.70
2023-03-24T14:05:20.764Z,13.70
2023-03-24T14:08:55.180Z,13.80
2023-03-24T14:12:11.196Z,13.80
2023-03-24T14:19:05.736Z,13.90
2023-03-24T14:25:36.028Z,13.80
2023-03-24T14:28:26.159Z,13.80
2023-03-24T14:31:23.825Z,13.70
2023-03-24T14:34:08.237Z,13.60
2023-03-24T14:40:07.104Z,13.70
2023-03-24T14:42:48.226Z,13.70
2023-03-24T14:45:38.812Z,13.70
2023-03-24T14:48:36.644Z,13.70
2023-03-24T14:51:29.066Z,13.70
2023-03-24T14:54:28.503Z,13.80
2023-03-24T14:57:11.079Z,13.70
2023-03-24T14:59:53.440Z,13.70
2023-03-24T15:02:51.650Z,13.80
2023-03-24T15:05:34.505Z,13.80
2023-03-24T15:08:39.143Z,13.70
2023-03-24T15:14:23.293Z,13.70
2023-03-24T15:16:59.587Z,13.60
2023-03-24T15:19:37.764Z,13.60
2023-03-24T15:22:13.539Z,13.60
2023-03-24T15:24:42.646Z,13.60
2023-03-24T15:31:11.131Z,13.60
2023-03-24T15:34:14.863Z,13.60
2023-03-24T15:37:07.046Z,13.60
2023-03-24T15:40:15.206Z,13.70
2023-03-24T15:46:39.346Z,13.70
2023-03-24T15:49:19.677Z,13.80
2023-03-24T15:51:52.916Z,13.80
2023-03-24T15:57:56.639Z,13.80
2023-03-24T16:00:39.121Z,13.80
2023-03-24T16:03:30.736Z,13.80
2023-03-24T16:06:08.804Z,13.80
2023-03-24T16:09:13.404Z,13.70
2023-03-24T16:11:57.240Z,13.70
2023-03-24T16:14:36.022Z,13.70
2023-03-24T16:17:05.371Z,13.70
2023-03-24T16:19:33.528Z,13.60
2023-03-24T16:33:31.301Z,13.50
2023-03-24T16:39:43.544Z,13.50
2023-03-24T16:42:13.646Z,13.40
2023-03-24T16:49:24.377Z,13.30
2023-03-24T16:52:32.598Z,13.30
2023-03-24T16:55:22.391Z,13.20
2023-03-24T16:58:15.421Z,13.20
2023-03-24T17:01:42.459Z,13.20
2023-03-24T17:08:05.879Z,13.20
2023-03-24T17:10:38.241Z,13.20
2023-03-24T17:13:11.577Z,13.10
2023-03-24T17:15:40.286Z,13.10
2023-03-24T17:18:10.201Z,13.10
2023-03-24T17:20:45.641Z,13.00
2023-03-24T17:23:22.207Z,13.00
2023-03-24T17:25:55.260Z,13.00
2023-03-24T17:28:31.066Z,12.90
2023-03-24T17:31:03.354Z,12.90
2023-03-24T17:33:34.535Z,12.90
2023-03-24T17:36:07.293Z,12.80
2023-03-24T17:38:37.173Z,12.80
2023-03-24T17:41:10.215Z,12.70
2023-03-24T17:43:40.870Z,12.70
2023-03-24T17:46:09.907Z,12.70
2023-03-24T17:48:46.662Z,12.60
2023-03-24T18:00:32.249Z,12.40
2023-03-24T18:03:15.545Z,12.40
2023-03-24T18:06:02.598Z,12.40
2023-03-24T18:53:06.992Z,11.80
2023-03-24T19:33:37.545Z,11.30
2023-03-24T19:37:11.716Z,11.30
2023-03-24T19:40:05.564Z,11.20
2023-03-24T19:49:37.760Z,11.20
2023-03-24T19:52:35.708Z,11.10
2023-03-24T20:02:01.496Z,11.10
2023-03-24T20:05:03.449Z,11.10
2023-03-24T20:27:59.875Z,10.80
2023-03-24T20:31:08.056Z,10.80
2023-03-24T20:40:04.603Z,10.70
2023-03-24T20:50:53.532Z,10.60
2023-03-24T21:08:22.440Z,10.50
2023-03-24T21:47:47.552Z,10.20
2023-03-24T21:51:17.262Z,10.20
2023-03-24T21:58:06.444Z,10.10
2023-03-24T22:04:26.456Z,10.10
2023-03-24T22:14:18.490Z,10.00
2023-03-24T22:17:23.991Z,10.00
2023-03-24T22:20:46.973Z,10.00
2023-03-24T22:23:42.263Z,10.00
2023-03-24T22:26:54.372Z,10.00
2023-03-24T22:30:36.108Z,10.00
2023-03-24T22:44:20.066Z,9.90
2023-03-24T22:50:18.320Z,9.90
2023-03-24T22:53:24.614Z,9.90
2023-03-24T22:56:30.321Z,9.90
2023-03-24T22:59:37.443Z,9.90
2023-03-24T23:05:41.718Z,9.80
2023-03-24T23:09:02.664Z,9.90
2023-03-24T23:13:07.331Z,9.90
2023-03-24T23:16:15.830Z,9.90
2023-03-24T23:25:28.600Z,9.90
2023-03-24T23:28:16.840Z,9.80
2023-03-24T23:31:18.510Z,9.80
2023-03-24T23:46:47.770Z,9.90
2023-03-24T23:50:06.017Z,9.90
2023-03-24T23:53:14.061Z,9.90
2023-03-24T23:56:40.168Z,9.80
2023-03-24T23:59:49.117Z,9.80
